Time;durP1;ratioP1;P1;durP2;ratioP2;P2;SDS_P1;SDS_P2;PMS_P1;PMS_P2;Temp;Humidity;BMP_temperature;BMP_pressure;BME280_temperature;BME280_humidity;BME280_pressure;Samples;Min_cycle;Max_cycle;Signal;HPM_P1;HPM_P2
2022/04/22 00:02:16;;;;;;;13.35;8.30;;;12.00;99.90;;;;;;5027205;28;20125;-73
2022/04/22 00:04:41;;;;;;;11.63;8.43;;;12.00;99.90;;;;;;5026421;28;20397;-73
2022/04/22 00:07:07;;;;;;;12.48;8.43;;;11.90;99.90;;;;;;5008798;28;20096;-73
2022/04/22 00:09:33;;;;;;;14.05;8.63;;;11.90;99.90;;;;;;5009614;28;20137;-73
2022/04/22 00:11:59;;;;;;;13.70;9.05;;;11.90;99.90;;;;;;5006488;28;20041;-73
2022/04/22 00:14:25;;;;;;;13.82;9.20;;;11.80;99.90;;;;;;5009730;28;20045;-73
2022/04/22 00:16:50;;;;;;;15.38;9.75;;;11.80;99.90;;;;;;5028561;28;20048;-73
2022/04/22 00:19:16;;;;;;;12.27;9.45;;;11.70;99.90;;;;;;5026382;28;20038;-73
2022/04/22 00:21:42;;;;;;;12.63;9.73;;;11.70;99.90;;;;;;5007041;28;20515;-73
2022/04/22 00:24:08;;;;;;;14.15;9.70;;;11.70;99.90;;;;;;5026831;28;20057;-74
2022/04/22 00:26:33;;;;;;;13.40;9.63;;;11.60;99.90;;;;;;5026657;28;20202;-74
2022/04/22 00:28:59;;;;;;;15.38;10.30;;;11.60;99.90;;;;;;5011289;28;20049;-73
2022/04/22 00:31:25;;;;;;;13.40;10.00;;;11.60;99.90;;;;;;5007675;28;20508;-73
2022/04/22 00:33:50;;;;;;;15.70;10.45;;;11.60;99.90;;;;;;5030104;28;20072;-73
2022/04/22 00:36:16;;;;;;;16.25;11.00;;;11.60;99.90;;;;;;5027667;28;20455;-73
2022/04/22 00:38:41;;;;;;;16.77;10.65;;;11.50;99.90;;;;;;5030069;28;20393;-73
2022/04/22 00:41:07;;;;;;;16.15;11.00;;;11.50;99.90;;;;;;5030206;28;20068;-73
2022/04/22 00:43:44;;;;;;;18.52;11.80;;;11.50;99.90;;;;;;5008654;28;20472;-75
2022/04/22 00:46:10;;;;;;;20.60;11.82;;;11.40;99.90;;;;;;5013270;28;20053;-75
2022/04/22 00:48:36;;;;;;;19.48;11.38;;;11.40;99.90;;;;;;5029325;28;20038;-75
2022/04/22 00:51:07;;;;;;;17.55;11.90;;;11.40;99.90;;;;;;5011631;28;20485;-75
2022/04/22 00:53:36;;;;;;;16.42;11.60;;;11.30;99.90;;;;;;5027284;28;20366;-75
2022/04/22 00:56:07;;;;;;;19.55;12.10;;;11.30;99.90;;;;;;5010368;28;20048;-75
2022/04/22 00:58:36;;;;;;;17.83;11.68;;;11.30;99.90;;;;;;5013126;28;20561;-74
2022/04/22 01:01:02;;;;;;;17.58;12.48;;;11.20;99.90;;;;;;5035421;28;20033;-75
2022/04/22 01:03:31;;;;;;;19.83;12.68;;;11.30;99.90;;;;;;5012485;28;20044;-75
2022/04/22 01:11:31;;;;;;;18.63;11.75;;;11.10;99.90;;;;;;5012239;28;20058;-75
2022/04/22 01:14:00;;;;;;;17.42;12.27;;;11.20;99.90;;;;;;5033607;28;20044;-74
2022/04/22 01:16:26;;;;;;;17.20;12.45;;;11.10;99.90;;;;;;5010662;28;20056;-74
2022/04/22 01:18:52;;;;;;;18.77;12.35;;;11.10;99.90;;;;;;5024161;28;20038;-73
2022/04/22 01:21:18;;;;;;;18.13;11.80;;;11.10;99.90;;;;;;5009227;28;20041;-74
2022/04/22 01:23:44;;;;;;;15.95;12.40;;;11.00;99.90;;;;;;5029584;28;20045;-75
2022/04/22 01:26:11;;;;;;;21.95;13.02;;;11.00;99.90;;;;;;5027551;28;20041;-74
2022/04/22 01:28:38;;;;;;;17.10;12.85;;;11.00;99.90;;;;;;5029308;28;20118;-75
2022/04/22 01:31:03;;;;;;;20.98;13.55;;;10.90;99.90;;;;;;5034234;28;20041;-75
2022/04/22 01:33:29;;;;;;;19.92;12.63;;;10.90;99.90;;;;;;5011106;28;20038;-73
2022/04/22 01:35:54;;;;;;;19.80;13.35;;;10.90;99.90;;;;;;5023876;28;20519;-74
2022/04/22 01:38:20;;;;;;;22.30;13.73;;;10.80;99.90;;;;;;5009215;28;20499;-73
2022/04/22 01:40:46;;;;;;;20.13;13.43;;;10.90;99.90;;;;;;5028355;28;20068;-74
2022/04/22 01:43:11;;;;;;;18.88;13.38;;;10.80;99.90;;;;;;5011331;28;20040;-74
2022/04/22 01:45:37;;;;;;;18.70;14.25;;;10.70;99.90;;;;;;5029820;28;20048;-75
2022/04/22 01:48:03;;;;;;;19.52;14.77;;;10.60;99.90;;;;;;5025290;28;20046;-74
2022/04/22 01:50:28;;;;;;;20.73;14.18;;;10.60;99.90;;;;;;5004675;28;20058;-75
2022/04/22 01:52:54;;;;;;;25.92;15.55;;;10.60;99.90;;;;;;5007576;28;20049;-75
2022/04/22 01:55:20;;;;;;;23.50;16.17;;;10.60;99.90;;;;;;5006648;28;20049;-75
2022/04/22 01:57:46;;;;;;;21.25;16.05;;;10.50;99.90;;;;;;5009276;28;20612;-75
2022/04/22 02:00:12;;;;;;;21.25;14.82;;;10.50;99.90;;;;;;5010046;28;20052;-75
2022/04/22 02:02:38;;;;;;;21.35;15.65;;;10.50;99.90;;;;;;5008623;28;20057;-75
2022/04/22 02:05:05;;;;;;;21.23;15.82;;;10.40;99.90;;;;;;5011285;28;20080;-75
2022/04/22 02:07:31;;;;;;;22.92;16.73;;;10.40;99.90;;;;;;5008678;28;20056;-75
2022/04/22 02:09:57;;;;;;;25.05;16.90;;;10.30;99.90;;;;;;5008876;28;20045;-75
2022/04/22 02:12:23;;;;;;;22.95;16.63;;;10.40;99.90;;;;;;5008208;28;20560;-75
2022/04/22 02:14:48;;;;;;;22.05;17.23;;;10.30;99.90;;;;;;5012272;28;20080;-75
2022/04/22 02:17:14;;;;;;;22.77;17.17;;;10.30;99.90;;;;;;5006591;28;20054;-75
2022/04/22 02:19:40;;;;;;;23.75;17.00;;;10.30;99.90;;;;;;5008883;28;20052;-75
2022/04/22 02:22:06;;;;;;;22.67;17.02;;;10.30;99.90;;;;;;5004534;28;20042;-75
2022/04/22 02:24:32;;;;;;;28.27;17.85;;;10.30;99.90;;;;;;5007500;28;20046;-75
2022/04/22 02:29:42;;;;;;;25.98;16.85;;;10.30;99.90;;;;;;5003845;28;20128;-75
2022/04/22 02:32:09;;;;;;;24.20;16.50;;;10.20;99.90;;;;;;5009529;28;20271;-75
2022/04/22 02:34:34;;;;;;;25.13;16.40;;;10.20;99.90;;;;;;5012272;28;20045;-75
2022/04/22 02:37:00;;;;;;;27.98;16.88;;;10.10;99.90;;;;;;5006377;28;20042;-75
2022/04/22 02:39:26;;;;;;;21.85;16.25;;;10.10;99.90;;;;;;5000744;28;20089;-75
2022/04/22 02:47:21;;;;;;;22.00;16.80;;;10.10;99.90;;;;;;5008713;28;20045;-75
2022/04/22 02:49:47;;;;;;;21.77;15.82;;;10.00;99.90;;;;;;5013304;28;20115;-75
2022/04/22 02:52:13;;;;;;;23.55;16.17;;;10.10;99.90;;;;;;5007121;28;20067;-74
2022/04/22 02:54:39;;;;;;;22.02;15.90;;;10.00;99.90;;;;;;5010041;28;20498;-74
2022/04/22 02:57:06;;;;;;;24.60;16.27;;;10.00;99.90;;;;;;5026965;28;20136;-74
2022/04/22 02:59:32;;;;;;;23.15;15.88;;;10.00;99.90;;;;;;5007195;28;20064;-74
2022/04/22 03:01:58;;;;;;;19.58;15.38;;;10.00;99.90;;;;;;5008210;28;20564;-74
2022/04/22 03:04:25;;;;;;;23.08;16.30;;;9.90;99.90;;;;;;5010361;28;20067;-73
2022/04/22 03:06:51;;;;;;;23.80;16.58;;;10.00;99.90;;;;;;5006612;28;20342;-74
2022/04/22 03:09:17;;;;;;;26.58;15.73;;;9.90;99.90;;;;;;5009388;28;20056;-74
2022/04/22 03:11:42;;;;;;;24.27;15.13;;;9.90;99.90;;;;;;5010988;28;20045;-74
2022/04/22 03:14:08;;;;;;;20.73;14.80;;;9.90;99.90;;;;;;5011180;28;20038;-74
2022/04/22 03:16:35;;;;;;;21.60;15.00;;;9.90;99.90;;;;;;5009431;28;20060;-74
2022/04/22 03:19:00;;;;;;;20.55;14.73;;;9.80;99.90;;;;;;5026007;28;20056;-73
2022/04/22 03:21:29;;;;;;;22.13;15.23;;;9.80;99.90;;;;;;5022489;28;20431;-74
2022/04/22 03:23:57;;;;;;;19.38;14.70;;;9.80;99.90;;;;;;5027047;28;20067;-74
2022/04/22 03:26:24;;;;;;;18.73;14.15;;;9.80;99.90;;;;;;5027834;28;20037;-74
2022/04/22 03:28:50;;;;;;;19.88;14.15;;;9.70;99.90;;;;;;5028192;28;20108;-74
2022/04/22 03:31:16;;;;;;;19.00;13.80;;;9.70;99.90;;;;;;5014535;28;20615;-73
2022/04/22 03:33:41;;;;;;;21.50;14.40;;;9.70;99.90;;;;;;5008384;28;20051;-74
2022/04/22 03:36:07;;;;;;;22.27;13.52;;;9.60;99.90;;;;;;5008984;28;20249;-74
2022/04/22 03:38:32;;;;;;;18.65;13.15;;;9.60;99.90;;;;;;5026674;28;20044;-73
2022/04/22 03:40:58;;;;;;;19.80;13.45;;;9.60;99.90;;;;;;5008667;28;20053;-74
2022/04/22 03:43:25;;;;;;;21.58;14.52;;;9.50;99.90;;;;;;5010470;28;20049;-74
2022/04/22 03:45:50;;;;;;;18.67;13.20;;;9.50;99.90;;;;;;5009822;28;20059;-74
2022/04/22 03:48:16;;;;;;;19.83;13.93;;;9.50;99.90;;;;;;5022289;28;20292;-74
2022/04/22 03:50:42;;;;;;;17.40;12.48;;;9.50;99.90;;;;;;5023998;28;20105;-74
2022/04/22 03:53:12;;;;;;;16.27;12.38;;;9.50;99.90;;;;;;5026185;28;20077;-74
2022/04/22 03:55:40;;;;;;;18.92;12.65;;;9.50;99.90;;;;;;5004805;28;20046;-73
2022/04/22 03:58:11;;;;;;;16.00;12.10;;;9.40;99.90;;;;;;5027836;28;20049;-73
2022/04/22 04:00:41;;;;;;;17.92;12.55;;;9.40;99.90;;;;;;5011441;28;20049;-74
2022/04/22 04:03:13;;;;;;;17.55;11.43;;;9.40;99.90;;;;;;5025772;28;20045;-74
2022/04/22 04:05:40;;;;;;;16.27;11.73;;;9.40;99.90;;;;;;5029709;28;21077;-75
2022/04/22 04:08:09;;;;;;;;;;;9.30;99.90;;;;;;5014622;28;20742;-73
2022/04/22 04:16:04;;;;;;;14.98;10.73;;;9.20;99.90;;;;;;5012818;28;20045;-75
2022/04/22 04:18:35;;;;;;;17.08;10.50;;;9.20;99.90;;;;;;5030362;28;20100;-75
2022/04/22 04:23:47;;;;;;;14.75;10.27;;;9.20;99.90;;;;;;5026332;28;20119;-75
2022/04/22 04:26:15;;;;;;;14.98;9.88;;;9.20;99.90;;;;;;5030844;28;20042;-75
2022/04/22 04:28:47;;;;;;;14.70;9.60;;;9.20;99.90;;;;;;5010452;28;20049;-75
2022/04/22 04:31:13;;;;;;;16.77;9.70;;;9.20;99.90;;;;;;5013709;28;20045;-75
2022/04/22 04:33:39;;;;;;;12.23;9.05;;;9.10;99.90;;;;;;5009878;28;20045;-75
2022/04/22 04:36:06;;;;;;;14.30;9.45;;;9.10;99.90;;;;;;5030964;28;20045;-75
2022/04/22 04:38:32;;;;;;;13.57;9.30;;;9.10;99.90;;;;;;5028591;28;20041;-75
2022/04/22 04:40:59;;;;;;;14.20;8.75;;;9.10;99.90;;;;;;5029273;28;20053;-75
2022/04/22 04:43:25;;;;;;;17.30;8.93;;;9.10;99.90;;;;;;5011915;28;20034;-75
2022/04/22 04:45:50;;;;;;;11.38;8.35;;;9.20;99.90;;;;;;5012692;28;20057;-74
2022/04/22 04:48:17;;;;;;;12.75;8.93;;;9.20;99.90;;;;;;5033903;28;20037;-75
2022/04/22 04:50:44;;;;;;;12.63;8.27;;;9.20;99.90;;;;;;5029063;28;20515;-74
2022/04/22 04:53:13;;;;;;;12.85;8.13;;;9.20;99.90;;;;;;5030748;28;20113;-75
2022/04/22 04:55:40;;;;;;;14.48;8.52;;;9.10;99.90;;;;;;5012372;28;20168;-75
2022/04/22 04:58:06;;;;;;;11.35;7.50;;;9.10;99.90;;;;;;5012613;28;20037;-75
2022/04/22 05:00:32;;;;;;;12.07;7.75;;;9.10;99.90;;;;;;5013089;28;20403;-74
2022/04/22 05:02:57;;;;;;;14.13;7.82;;;9.10;99.90;;;;;;5011785;28;20049;-73
2022/04/22 05:05:23;;;;;;;12.13;7.88;;;9.10;99.90;;;;;;5011173;28;20037;-75
2022/04/22 05:07:53;;;;;;;12.40;7.70;;;9.10;99.90;;;;;;5012400;28;20134;-74
2022/04/22 05:10:22;;;;;;;11.52;7.80;;;9.10;99.90;;;;;;5000350;28;20132;-75
2022/04/22 05:12:49;;;;;;;12.48;7.28;;;9.20;99.90;;;;;;5031021;28;20068;-74
2022/04/22 05:15:22;;;;;;;14.48;7.50;;;9.20;99.90;;;;;;5017501;28;20103;-75
2022/04/22 05:17:51;;;;;;;9.65;7.55;;;9.30;99.90;;;;;;5030304;28;20096;-75
2022/04/22 05:20:19;;;;;;;11.77;7.35;;;9.30;99.90;;;;;;5031742;28;20048;-75
2022/04/22 05:22:46;;;;;;;12.88;6.93;;;9.30;99.90;;;;;;5015438;28;20859;-75
2022/04/22 05:25:13;;;;;;;11.45;7.18;;;9.30;99.90;;;;;;5029813;28;20065;-76
2022/04/22 05:27:39;;;;;;;10.55;6.70;;;9.30;99.90;;;;;;5011809;28;20038;-76
2022/04/22 05:32:51;;;;;;;8.32;6.40;;;9.40;99.90;;;;;;5036340;22;20076;-75
2022/04/22 05:35:19;;;;;;;10.30;6.35;;;9.40;99.90;;;;;;5026093;28;20128;-76
2022/04/22 05:37:54;;;;;;;12.98;7.05;;;9.40;99.90;;;;;;5010001;28;20060;-76
2022/04/22 05:40:26;;;;;;;17.02;6.68;;;9.40;99.90;;;;;;5008483;28;20041;-76
2022/04/22 05:42:53;;;;;;;9.18;6.57;;;9.40;99.90;;;;;;5029773;28;20103;-76
2022/04/22 05:45:21;;;;;;;8.50;6.37;;;9.40;99.90;;;;;;5009022;28;20093;-76
2022/04/22 05:47:47;;;;;;;9.63;6.63;;;9.50;99.90;;;;;;5011347;28;20123;-74
2022/04/22 05:50:15;;;;;;;10.93;6.78;;;9.50;99.90;;;;;;5011054;28;20041;-75
2022/04/22 05:52:41;;;;;;;10.82;6.20;;;9.50;99.90;;;;;;5030574;28;20045;-75
2022/04/22 05:55:09;;;;;;;9.32;6.25;;;9.50;99.90;;;;;;5028536;28;20052;-75
2022/04/22 05:57:36;;;;;;;11.25;6.05;;;9.50;99.90;;;;;;5026022;28;20439;-75
2022/04/22 06:00:07;;;;;;;12.45;7.03;;;9.50;99.90;;;;;;5025323;28;20133;-75
2022/04/22 06:02:33;;;;;;;9.75;6.22;;;9.50;99.90;;;;;;5007235;28;20046;-75
2022/04/22 06:04:59;;;;;;;8.88;5.90;;;9.40;99.90;;;;;;5024936;28;20401;-75
2022/04/22 06:07:24;;;;;;;8.43;6.00;;;9.50;99.90;;;;;;5025744;28;20034;-75
2022/04/22 06:12:34;;;;;;;9.13;6.40;;;9.60;99.90;;;;;;5008035;28;20054;-75
2022/04/22 06:15:02;;;;;;;9.38;6.53;;;9.60;99.90;;;;;;5025838;28;20084;-75
2022/04/22 06:17:29;;;;;;;10.50;6.03;;;9.60;99.90;;;;;;5026571;28;20052;-75
2022/04/22 06:19:55;;;;;;;8.27;6.20;;;9.70;99.90;;;;;;5009888;28;20108;-75
2022/04/22 06:22:22;;;;;;;10.13;6.22;;;9.70;99.90;;;;;;5009675;28;20485;-75
2022/04/22 06:24:47;;;;;;;9.88;6.47;;;9.70;99.90;;;;;;5009977;28;20757;-75
2022/04/22 06:27:13;;;;;;;9.40;6.60;;;9.80;99.90;;;;;;5011691;28;20041;-75
2022/04/22 06:29:39;;;;;;;10.23;5.90;;;9.80;99.90;;;;;;5022159;28;20619;-75
2022/04/22 06:32:08;;;;;;;11.10;6.10;;;9.80;99.90;;;;;;5009463;28;20107;-74
2022/04/22 06:34:34;;;;;;;9.45;5.72;;;9.80;99.90;;;;;;5028383;28;20053;-75
2022/04/22 06:37:00;;;;;;;9.18;6.20;;;9.90;99.90;;;;;;5027300;28;20507;-75
2022/04/22 06:45:46;;;;;;;9.40;6.20;;;9.90;99.90;;;;;;5009618;28;20053;-75
2022/04/22 06:47:40;;;;;;;9.32;6.10;;;10.10;99.90;;;;;;5008892;28;20069;-74
2022/04/22 06:50:06;;;;;;;12.02;6.05;;;10.10;99.90;;;;;;5010258;28;20447;-75
2022/04/22 06:52:32;;;;;;;8.73;5.90;;;10.10;99.90;;;;;;5025926;28;20049;-75
2022/04/22 06:54:58;;;;;;;9.75;6.20;;;10.20;99.90;;;;;;5026040;28;20053;-75
2022/04/22 06:57:24;;;;;;;9.77;6.38;;;10.20;99.90;;;;;;5025813;28;20041;-75
2022/04/22 06:59:50;;;;;;;9.68;6.22;;;10.30;99.90;;;;;;5018880;28;20485;-75
2022/04/22 07:02:16;;;;;;;10.32;6.38;;;10.30;99.90;;;;;;5026562;28;20044;-76
2022/04/22 07:04:41;;;;;;;9.25;5.97;;;10.40;99.90;;;;;;4993106;28;20061;-76
2022/04/22 07:07:08;;;;;;;10.73;6.10;;;10.40;99.90;;;;;;5008894;28;20048;-79
2022/04/22 07:09:33;;;;;;;9.70;6.35;;;10.50;99.90;;;;;;5027884;28;20501;-79
2022/04/22 07:11:59;;;;;;;11.30;6.20;;;10.40;99.90;;;;;;5023892;28;20076;-79
2022/04/22 07:14:26;;;;;;;11.00;6.38;;;10.50;99.90;;;;;;5028908;28;20032;-79
2022/04/22 07:16:52;;;;;;;9.53;6.00;;;10.60;99.90;;;;;;5011516;28;20073;-77
2022/04/22 07:19:17;;;;;;;9.65;6.32;;;10.60;99.90;;;;;;5027943;28;20504;-78
2022/04/22 07:21:43;;;;;;;9.05;6.57;;;10.50;99.90;;;;;;4995555;28;20037;-78
2022/04/22 07:24:11;;;;;;;11.02;6.38;;;10.60;99.90;;;;;;5011370;28;20042;-79
2022/04/22 07:26:40;;;;;;;9.40;6.80;;;10.60;99.90;;;;;;5027376;28;20049;-78
2022/04/22 07:29:11;;;;;;;9.45;6.60;;;10.70;99.90;;;;;;5011183;28;20091;-78
2022/04/22 07:31:36;;;;;;;9.70;6.32;;;10.70;99.90;;;;;;5027931;28;20068;-76
2022/04/22 07:34:02;;;;;;;9.02;6.68;;;10.80;99.90;;;;;;5009159;28;20065;-76
2022/04/22 07:36:28;;;;;;;8.85;6.57;;;10.90;99.90;;;;;;5028548;28;20049;-77
2022/04/22 07:38:54;;;;;;;8.65;6.28;;;11.00;99.90;;;;;;5031621;28;20081;-76
2022/04/22 07:41:23;;;;;;;8.73;6.40;;;11.10;99.90;;;;;;5031854;28;20084;-77
2022/04/22 07:46:48;;;;;;;10.60;6.33;;;11.20;99.90;;;;;;5015191;28;20155;-78
2022/04/22 07:49:15;;;;;;;9.25;6.00;;;11.20;99.90;;;;;;5032387;28;20088;-77
2022/04/22 07:51:40;;;;;;;9.05;6.22;;;11.20;99.90;;;;;;5025969;28;20042;-78
2022/04/22 07:54:15;;;;;;;11.55;6.18;;;11.30;99.90;;;;;;5029936;28;20060;-79
2022/04/22 07:56:41;;;;;;;9.43;6.43;;;11.40;99.90;;;;;;5001907;28;20081;-78
2022/04/22 07:59:07;;;;;;;12.85;6.15;;;11.40;99.90;;;;;;5013680;28;20069;-73
2022/04/22 08:01:33;;;;;;;8.55;5.68;;;11.50;99.90;;;;;;5010444;28;20393;-78
2022/04/22 08:03:59;;;;;;;10.65;5.90;;;11.60;99.90;;;;;;5030286;28;20042;-77
2022/04/22 08:06:25;;;;;;;10.18;6.15;;;11.70;99.90;;;;;;5032629;28;20730;-80
2022/04/22 08:08:50;;;;;;;8.27;5.65;;;11.80;99.90;;;;;;5013783;28;20046;-78
2022/04/22 08:11:16;;;;;;;9.35;5.57;;;11.80;99.90;;;;;;5032424;28;20040;-79
2022/04/22 08:13:42;;;;;;;9.20;5.70;;;11.90;99.90;;;;;;5028986;28;20049;-79
2022/04/22 08:16:07;;;;;;;9.52;5.35;;;12.00;99.90;;;;;;5028328;28;20049;-78
2022/04/22 08:18:33;;;;;;;9.68;5.45;;;12.10;99.90;;;;;;5030641;28;20041;-79
2022/04/22 08:20:58;;;;;;;10.90;5.40;;;12.10;99.90;;;;;;5014676;28;20049;-79
2022/04/22 08:23:24;;;;;;;9.27;5.82;;;12.20;99.90;;;;;;5030791;28;20067;-80
2022/04/22 08:25:50;;;;;;;8.15;5.40;;;12.30;99.90;;;;;;5028523;28;20060;-76
2022/04/22 08:28:17;;;;;;;8.18;5.25;;;12.30;99.90;;;;;;5013144;28;20087;-78
2022/04/22 08:30:42;;;;;;;9.70;4.80;;;12.40;99.90;;;;;;5013357;28;20056;-77
2022/04/22 08:33:08;;;;;;;8.00;4.72;;;12.40;99.90;;;;;;5014365;28;20049;-77
2022/04/22 08:35:37;;;;;;;6.57;4.75;;;12.60;99.90;;;;;;5014538;28;20413;-88
2022/04/22 08:38:07;;;;;;;7.45;4.70;;;12.60;99.90;;;;;;5014745;28;20045;-80
2022/04/22 08:40:35;;;;;;;10.85;4.97;;;12.70;99.90;;;;;;5013549;28;20562;-80
2022/04/22 08:43:01;;;;;;;8.57;4.60;;;12.80;99.90;;;;;;5012560;28;20045;-80
2022/04/22 08:45:28;;;;;;;10.65;5.40;;;12.90;99.90;;;;;;5030322;28;20046;-80
2022/04/22 08:50:42;;;;;;;8.23;4.60;;;13.10;98.60;;;;;;5030502;28;20057;-80
2022/04/22 08:53:11;;;;;;;8.07;4.30;;;13.10;96.20;;;;;;5030945;28;20041;-79
2022/04/22 08:55:39;;;;;;;7.07;4.13;;;13.10;95.60;;;;;;5029704;28;20040;-80
2022/04/22 08:58:05;;;;;;;7.20;4.15;;;13.20;93.90;;;;;;5010437;28;20392;-81
2022/04/22 09:00:36;;;;;;;7.55;4.28;;;13.20;94.30;;;;;;5013070;28;20049;-81
2022/04/22 09:03:02;;;;;;;9.45;4.32;;;13.20;92.00;;;;;;5030613;28;20555;-76
2022/04/22 09:05:27;;;;;;;6.43;4.00;;;13.30;92.80;;;;;;5030524;28;20793;-80
2022/04/22 09:07:53;;;;;;;7.20;4.18;;;13.30;91.80;;;;;;5031407;28;20425;-80
2022/04/22 09:10:20;;;;;;;9.30;4.25;;;13.40;90.80;;;;;;5031259;28;20043;-79
2022/04/22 09:12:52;;;;;;;8.00;4.28;;;13.50;90.80;;;;;;5012716;28;20065;-79
2022/04/22 09:15:20;;;;;;;8.88;4.32;;;13.60;90.50;;;;;;5031099;28;20041;-78
2022/04/22 09:17:46;;;;;;;5.45;4.40;;;13.70;88.90;;;;;;5028702;28;20076;-76
2022/04/22 09:20:16;;;;;;;7.53;4.55;;;13.80;88.70;;;;;;5026702;28;20142;-77
2022/04/22 09:22:45;;;;;;;8.25;4.25;;;13.80;89.80;;;;;;5030004;28;20037;-77
2022/04/22 09:25:10;;;;;;;8.45;3.97;;;13.90;89.00;;;;;;5028454;28;20382;-77
2022/04/22 09:27:38;;;;;;;6.18;4.43;;;14.00;88.00;;;;;;5029409;28;20116;-77
2022/04/22 09:30:09;;;;;;;7.00;4.50;;;14.00;85.20;;;;;;5013290;28;20048;-77
2022/04/22 09:32:37;;;;;;;6.65;4.18;;;14.10;83.40;;;;;;5012465;28;20076;-77
2022/04/22 09:35:16;;;;;;;9.65;4.00;;;14.10;84.90;;;;;;5027146;28;20520;-76
2022/04/22 09:43:39;;;;;;;11.18;5.00;;;14.10;82.40;;;;;;5029016;28;20496;-80
2022/04/22 09:46:05;;;;;;;9.35;4.40;;;14.20;82.50;;;;;;5029189;28;20072;-78
2022/04/22 09:48:44;;;;;;;7.32;4.05;;;14.30;81.60;;;;;;5010640;28;20124;-77
2022/04/22 09:51:27;;;;;;;8.48;4.55;;;14.40;80.60;;;;;;5029961;28;20073;-77
2022/04/22 09:54:09;;;;;;;7.50;4.20;;;14.40;80.40;;;;;;5029655;28;20044;-75
2022/04/22 09:56:37;;;;;;;8.38;4.00;;;14.50;80.00;;;;;;5029724;28;20041;-76
2022/04/22 09:59:24;;;;;;;7.30;4.15;;;14.50;77.70;;;;;;5029607;28;20041;-76
2022/04/22 10:01:50;;;;;;;9.30;4.30;;;14.60;77.20;;;;;;4995650;28;20133;-81
2022/04/22 10:04:20;;;;;;;14.77;4.35;;;14.60;79.90;;;;;;5003772;28;20054;-78
2022/04/22 10:06:47;;;;;;;6.65;4.07;;;14.70;77.80;;;;;;5029648;28;20059;-77
2022/04/22 10:09:14;;;;;;;6.37;4.23;;;14.70;73.90;;;;;;5027613;28;20045;-77
2022/04/22 10:11:44;;;;;;;7.75;4.00;;;14.80;72.70;;;;;;5029809;28;20350;-78
2022/04/22 10:14:11;;;;;;;8.88;4.40;;;14.80;72.50;;;;;;5029461;28;20041;-78
2022/04/22 10:16:37;;;;;;;7.60;4.20;;;14.90;73.00;;;;;;5011162;28;20413;-79
2022/04/22 10:19:05;;;;;;;8.32;3.78;;;15.00;73.00;;;;;;5027941;28;20073;-78
2022/04/22 10:21:31;;;;;;;9.05;5.18;;;15.00;69.60;;;;;;5027861;28;20037;-81
2022/04/22 10:23:58;;;;;;;10.65;4.38;;;15.10;70.20;;;;;;5027244;28;20057;-78
2022/04/22 10:26:27;;;;;;;7.72;4.10;;;15.20;69.80;;;;;;5026056;28;20373;-79
2022/04/22 10:28:54;;;;;;;5.32;3.70;;;15.30;69.00;;;;;;5006718;28;20128;-80
2022/04/22 10:31:22;;;;;;;7.00;4.10;;;15.30;66.20;;;;;;5028242;28;20451;-80
2022/04/22 10:33:50;;;;;;;8.68;4.38;;;15.40;65.10;;;;;;5010743;28;20655;-80
2022/04/22 10:36:18;;;;;;;8.30;3.97;;;15.50;66.90;;;;;;5014218;28;20084;-73
2022/04/22 10:38:50;;;;;;;9.27;4.25;;;15.50;65.10;;;;;;5028406;28;20048;-72
2022/04/22 10:41:17;;;;;;;7.45;4.00;;;15.60;63.70;;;;;;5026969;28;20052;-73
2022/04/22 10:43:45;;;;;;;10.20;4.18;;;15.50;62.80;;;;;;5010609;28;20053;-74
2022/04/22 10:49:11;;;;;;;8.95;4.50;;;15.70;64.10;;;;;;4981601;28;20057;-74
2022/04/22 10:52:09;;;;;;;8.48;4.45;;;15.70;63.00;;;;;;5007858;28;20041;-74
2022/04/22 10:54:53;;;;;;;8.30;4.63;;;15.80;63.20;;;;;;5010316;28;20391;-74
2022/04/22 10:57:20;;;;;;;7.78;4.28;;;15.90;64.30;;;;;;5026886;28;20041;-72
2022/04/22 11:00:02;;;;;;;8.25;4.43;;;16.00;64.70;;;;;;5005639;28;20051;-74
2022/04/22 11:02:29;;;;;;;8.00;4.68;;;16.10;65.10;;;;;;5008163;28;20568;-74
2022/04/22 11:05:19;;;;;;;8.77;4.60;;;16.20;67.10;;;;;;5010535;28;20493;-75
2022/04/22 11:07:51;;;;;;;7.43;4.70;;;16.30;65.00;;;;;;5009825;28;20049;-75
2022/04/22 11:10:21;;;;;;;8.98;4.80;;;16.40;65.00;;;;;;5010520;28;20052;-75
2022/04/22 11:12:59;;;;;;;9.57;4.97;;;16.50;64.40;;;;;;5028264;28;20473;-75
2022/04/22 11:15:43;;;;;;;9.10;4.88;;;16.60;62.20;;;;;;5010938;28;20053;-74
2022/04/22 11:18:21;;;;;;;12.65;5.00;;;16.60;61.80;;;;;;5026242;28;20128;-74
2022/04/22 11:21:04;;;;;;;11.25;5.00;;;16.70;61.20;;;;;;5027842;28;20056;-74
2022/04/22 11:23:37;;;;;;;8.00;4.70;;;16.70;63.90;;;;;;5027269;28;20041;-72
2022/04/22 11:26:04;;;;;;;6.72;4.80;;;16.70;63.60;;;;;;5005611;28;20064;-73
2022/04/22 11:28:38;;;;;;;7.07;4.95;;;16.80;62.90;;;;;;5009992;28;20505;-75
2022/04/22 11:31:06;;;;;;;10.13;4.60;;;16.80;62.60;;;;;;5028677;28;20137;-74
2022/04/22 11:33:51;;;;;;;11.25;5.60;;;16.80;60.50;;;;;;5025623;28;20061;-74
2022/04/22 11:36:17;;;;;;;10.88;4.88;;;16.80;59.60;;;;;;5027723;28;20042;-79
2022/04/22 11:38:47;;;;;;;7.88;5.20;;;16.80;60.80;;;;;;5009918;28;20099;-79
2022/04/22 11:41:14;;;;;;;11.68;5.13;;;16.80;60.80;;;;;;5028536;28;20115;-80
2022/04/22 11:43:41;;;;;;;8.25;4.70;;;16.80;61.00;;;;;;5026834;28;20040;-77
2022/04/22 11:46:08;;;;;;;8.82;4.95;;;16.90;62.70;;;;;;5027389;28;20045;-79
2022/04/22 11:48:34;;;;;;;7.30;4.70;;;16.90;59.50;;;;;;5011012;28;20073;-78
2022/04/22 11:51:00;;;;;;;8.15;5.10;;;16.90;60.20;;;;;;5028114;28;20076;-78
2022/04/22 11:53:29;;;;;;;8.48;5.10;;;16.90;59.60;;;;;;5007596;28;20037;-78
2022/04/22 11:55:55;;;;;;;8.23;5.25;;;17.00;60.10;;;;;;5005576;28;20038;-77
2022/04/22 11:58:24;;;;;;;9.52;5.53;;;17.00;59.00;;;;;;5008150;28;20045;-79
2022/04/22 12:06:22;;;;;;;6.80;5.05;;;17.50;58.90;;;;;;5023774;28;20041;-77
2022/04/22 12:09:04;;;;;;;10.43;5.63;;;17.60;58.90;;;;;;5009823;28;20049;-76
2022/04/22 12:11:37;;;;;;;12.25;6.45;;;17.80;58.30;;;;;;5009809;28;20540;-77
2022/04/22 12:14:06;;;;;;;10.68;5.90;;;17.90;56.90;;;;;;5028177;28;20049;-79
2022/04/22 12:16:32;;;;;;;9.40;6.22;;;18.00;57.20;;;;;;5026162;28;20670;-78
2022/04/22 12:19:00;;;;;;;10.30;6.13;;;18.10;57.70;;;;;;5026493;28;20041;-76
2022/04/22 12:21:27;;;;;;;9.40;5.90;;;18.30;58.30;;;;;;5010751;28;20042;-76
2022/04/22 12:23:57;;;;;;;;;;;18.30;56.80;;;;;;5008714;28;20059;-76
2022/04/22 12:26:24;;;;;;;11.57;6.55;;;18.30;55.30;;;;;;5028469;28;19925;-76
2022/04/22 12:28:57;;;;;;;;;;;18.30;56.60;;;;;;5031935;28;20129;-76
2022/04/22 12:31:24;;;;;;;10.73;7.00;;;18.20;56.60;;;;;;5031944;28;19924;-76
2022/04/22 12:34:02;;;;;;;11.43;7.47;;;18.10;56.40;;;;;;5030166;28;20501;-76
2022/04/22 12:36:36;;;;;;;11.73;7.28;;;17.90;55.30;;;;;;5030948;28;20292;-76
2022/04/22 12:39:04;;;;;;;10.98;7.57;;;17.80;55.30;;;;;;5011402;28;20476;-76
2022/04/22 12:41:33;;;;;;;13.18;8.13;;;17.70;55.90;;;;;;5029154;28;20488;-76
2022/04/22 12:43:59;;;;;;;12.82;7.45;;;17.80;56.80;;;;;;5025604;28;20041;-76
2022/04/22 12:52:19;;;;;;;13.25;7.00;;;18.10;56.50;;;;;;5030764;28;20497;-78
2022/04/22 12:54:46;;;;;;;10.05;7.75;;;18.00;55.80;;;;;;5025224;28;20485;-77
2022/04/22 12:57:18;;;;;;;9.52;6.97;;;18.00;56.40;;;;;;5015138;28;20121;-78
2022/04/22 12:59:49;;;;;;;12.27;7.25;;;18.00;57.10;;;;;;5039696;28;20037;-77
2022/04/22 13:02:15;;;;;;;11.82;7.00;;;18.20;56.70;;;;;;5012664;28;20060;-75
2022/04/22 13:04:52;;;;;;;13.13;7.25;;;18.20;58.30;;;;;;5029337;28;20041;-78
2022/04/22 13:07:18;;;;;;;;;;;18.40;57.90;;;;;;5028961;28;20053;-77
2022/04/22 13:09:45;;;;;;;11.15;6.55;;;18.40;57.40;;;;;;5030510;28;19939;-78
2022/04/22 13:12:11;;;;;;;10.52;7.40;;;18.30;57.40;;;;;;5012494;28;20124;-78
2022/04/22 13:14:36;;;;;;;11.52;7.55;;;18.30;56.00;;;;;;5029970;28;20496;-79
2022/04/22 13:17:03;;;;;;;12.25;7.25;;;18.10;55.90;;;;;;5012466;28;20049;-78
2022/04/22 13:19:29;;;;;;;13.10;7.82;;;18.10;55.70;;;;;;5012789;28;20052;-76
2022/04/22 13:21:55;;;;;;;12.20;7.60;;;18.00;56.10;;;;;;5031366;28;20123;-76
2022/04/22 13:24:21;;;;;;;12.20;8.15;;;17.90;56.10;;;;;;5008704;28;20103;-77
2022/04/22 13:26:46;;;;;;;12.15;7.18;;;17.90;56.10;;;;;;5030609;28;20518;-78
2022/04/22 13:29:12;;;;;;;14.50;7.95;;;17.80;56.20;;;;;;5030616;28;20038;-78
2022/04/22 13:31:38;;;;;;;12.52;7.50;;;17.70;56.20;;;;;;5029102;28;20045;-77
2022/04/22 13:34:04;;;;;;;10.50;6.88;;;17.70;56.40;;;;;;5007056;28;20546;-76
2022/04/22 13:36:31;;;;;;;11.75;6.80;;;17.60;57.30;;;;;;5009071;28;20501;-76
2022/04/22 13:38:56;;;;;;;13.43;6.63;;;17.70;57.60;;;;;;4992939;28;20056;-77
2022/04/22 13:41:22;;;;;;;10.93;6.30;;;17.70;57.50;;;;;;5005916;28;20045;-78
2022/04/22 13:43:48;;;;;;;14.18;6.97;;;18.00;57.80;;;;;;5009470;28;20053;-82